Varmdo — SMXZ — position and weather

sailwx.info

Track history (hours):
 
Tides and Currents Weather Stations Pressure Air Temp Water Temp Dewpoint Dewpoint Depression Visibility Wind Speed Wind Dir Waves Ship Positions

Varmdo

Last reported at 2016-Sep-29 19:32 UTC. Time now 2016-Sep-29 20:23 UTC.
Position N 59°20' E 018°05'.

Length 38 m; draft 2.5 m.

Type: Passenger vessel. MMSI: 265520390.

Date/timePositionNaut miles runAvg speedWind from/ knotsBaromVisibWave heightAir tempDewpointWater temp
2016-Sep-29 19:32N 59°20' E 018°05'0 0.0
2016-Sep-29 16:32N 59°20' E 018°05'0 0.0
2016-Sep-29 15:32N 59°20' E 018°05'0 0.0
2016-Sep-29 14:32N 59°20' E 018°05'0 0.0
2016-Sep-29 13:32N 59°20' E 018°05'0 0.0
2016-Sep-29 08:32N 59°20' E 018°05'0 0.0
2016-Sep-29 07:32N 59°20' E 018°05'0 0.0
2016-Sep-29 00:32N 59°20' E 018°05'0 0.0
2016-Sep-28 21:32N 59°20' E 018°05'0 0.0
2016-Sep-28 19:32N 59°20' E 018°05'0 0.0
2016-Sep-28 16:32N 59°20' E 018°05'0 0.0
2016-Sep-28 15:32N 59°20' E 018°05'0 0.0
2016-Sep-28 12:32N 59°20' E 018°05'0 0.0
2016-Sep-28 08:32N 59°20' E 018°05'0 0.0
2016-Sep-28 03:32N 59°20' E 018°05'0 0.0
2016-Sep-28 02:32N 59°20' E 018°05'0 0.0
2016-Sep-28 01:32N 59°20' E 018°05'0 0.0
2016-Sep-27 23:32N 59°20' E 018°05'0 0.0
2016-Sep-27 19:32N 59°20' E 018°05'0 0.0
2016-Sep-27 14:32N 59°20' E 018°05'0 0.0
2016-Sep-27 13:29N 59°20' E 018°05'0 0.0
2016-Sep-27 10:32N 59°20' E 018°05'10 0.2
2016-Sep-25 16:29N 59°24' E 018°21'1010.4
2016-Sep-25 15:33N 59°20' E 018°05'7 7.0
2016-Sep-25 14:34N 59°23' E 018°17'3 0.1
2016-Sep-24 14:10N 59°24' E 018°21'10 5.9
2016-Sep-24 12:33N 59°20' E 018°05'9 0.4
2016-Sep-23 16:32N 59°23' E 018°20'9 9.0
2016-Sep-23 15:33N 59°20' E 018°05'0 0.0
2016-Sep-23 06:31N 59°20' E 018°05'0 0.0
2016-Sep-23 04:31N 59°20' E 018°05'0 0.0
2016-Sep-23 03:31N 59°20' E 018°05'0 0.0
2016-Sep-23 02:31N 59°20' E 018°05'0 0.0
2016-Sep-23 01:31N 59°20' E 018°05'0 0.0
2016-Sep-23 00:31N 59°20' E 018°05'0 0.0
2016-Sep-22 23:31N 59°20' E 018°05'0 0.0
2016-Sep-22 20:31N 59°20' E 018°05'0 0.0
2016-Sep-22 12:33N 59°20' E 018°05'0 0.0
2016-Sep-22 04:33N 59°20' E 018°05'0 0.0
2016-Sep-22 03:33N 59°20' E 018°05'0 0.0
2016-Sep-22 00:33N 59°20' E 018°05'0 0.0
2016-Sep-21 23:33N 59°20' E 018°05'0 0.0
2016-Sep-21 22:33N 59°20' E 018°05'0 0.0
2016-Sep-21 19:33N 59°20' E 018°05'0 0.0
2016-Sep-21 16:33N 59°20' E 018°05'0 0.0
2016-Sep-21 09:33N 59°20' E 018°05'0 0.0
2016-Sep-21 08:30N 59°20' E 018°05'0 0.0
2016-Sep-21 05:33N 59°20' E 018°05'0 0.0
2016-Sep-21 03:33N 59°20' E 018°05'0 0.0
2016-Sep-21 02:33N 59°20' E 018°05'0 0.0
2016-Sep-20 17:33N 59°20' E 018°05'0 0.0
2016-Sep-20 14:33N 59°20' E 018°05'0 0.0
2016-Sep-20 13:33N 59°20' E 018°05'0 0.0
2016-Sep-20 10:33N 59°20' E 018°05'0 0.0
2016-Sep-20 08:33N 59°20' E 018°05'5 5.2
2016-Sep-20 07:33N 59°21' E 018°14'  
Track history (hours):
 
Tides and Currents Weather Stations Pressure Air Temp Water Temp Dewpoint Dewpoint Depression Visibility Wind Speed Wind Dir Waves Ship Positions

Varmdo

Last reported at 2016-Sep-29 19:32 UTC. Time now 2016-Sep-29 20:23 UTC.
Position N 59°20' E 018°05'.

Length 38 m; draft 2.5 m.

Type: Passenger vessel. MMSI: 265520390.

Date/timePositionNaut miles runAvg speedWind from/ knotsBaromVisibWave heightAir tempDewpointWater temp
2016-Sep-29 19:32N 59°20' E 018°05'0 0.0
2016-Sep-29 16:32N 59°20' E 018°05'0 0.0
2016-Sep-29 15:32N 59°20' E 018°05'0 0.0
2016-Sep-29 14:32N 59°20' E 018°05'0 0.0
2016-Sep-29 13:32N 59°20' E 018°05'0 0.0
2016-Sep-29 08:32N 59°20' E 018°05'0 0.0
2016-Sep-29 07:32N 59°20' E 018°05'0 0.0
2016-Sep-29 00:32N 59°20' E 018°05'0 0.0
2016-Sep-28 21:32N 59°20' E 018°05'0 0.0
2016-Sep-28 19:32N 59°20' E 018°05'0 0.0
2016-Sep-28 16:32N 59°20' E 018°05'0 0.0
2016-Sep-28 15:32N 59°20' E 018°05'0 0.0
2016-Sep-28 12:32N 59°20' E 018°05'0 0.0
2016-Sep-28 08:32N 59°20' E 018°05'0 0.0
2016-Sep-28 03:32N 59°20' E 018°05'0 0.0
2016-Sep-28 02:32N 59°20' E 018°05'0 0.0
2016-Sep-28 01:32N 59°20' E 018°05'0 0.0
2016-Sep-27 23:32N 59°20' E 018°05'0 0.0
2016-Sep-27 19:32N 59°20' E 018°05'0 0.0
2016-Sep-27 14:32N 59°20' E 018°05'0 0.0
2016-Sep-27 13:29N 59°20' E 018°05'0 0.0
2016-Sep-27 10:32N 59°20' E 018°05'10 0.2
2016-Sep-25 16:29N 59°24' E 018°21'1010.4
2016-Sep-25 15:33N 59°20' E 018°05'7 7.0
2016-Sep-25 14:34N 59°23' E 018°17'3 0.1
2016-Sep-24 14:10N 59°24' E 018°21'10 5.9
2016-Sep-24 12:33N 59°20' E 018°05'9 0.4
2016-Sep-23 16:32N 59°23' E 018°20'9 9.0
2016-Sep-23 15:33N 59°20' E 018°05'0 0.0
2016-Sep-23 06:31N 59°20' E 018°05'0 0.0
2016-Sep-23 04:31N 59°20' E 018°05'0 0.0
2016-Sep-23 03:31N 59°20' E 018°05'0 0.0
2016-Sep-23 02:31N 59°20' E 018°05'0 0.0
2016-Sep-23 01:31N 59°20' E 018°05'0 0.0
2016-Sep-23 00:31N 59°20' E 018°05'0 0.0
2016-Sep-22 23:31N 59°20' E 018°05'0 0.0
2016-Sep-22 20:31N 59°20' E 018°05'0 0.0
2016-Sep-22 12:33N 59°20' E 018°05'0 0.0
2016-Sep-22 04:33N 59°20' E 018°05'0 0.0
2016-Sep-22 03:33N 59°20' E 018°05'0 0.0
2016-Sep-22 00:33N 59°20' E 018°05'0 0.0
2016-Sep-21 23:33N 59°20' E 018°05'0 0.0
2016-Sep-21 22:33N 59°20' E 018°05'0 0.0
2016-Sep-21 19:33N 59°20' E 018°05'0 0.0
2016-Sep-21 16:33N 59°20' E 018°05'0 0.0
2016-Sep-21 09:33N 59°20' E 018°05'0 0.0
2016-Sep-21 08:30N 59°20' E 018°05'0 0.0
2016-Sep-21 05:33N 59°20' E 018°05'0 0.0
2016-Sep-21 03:33N 59°20' E 018°05'0 0.0
2016-Sep-21 02:33N 59°20' E 018°05'0 0.0
2016-Sep-20 17:33N 59°20' E 018°05'0 0.0
2016-Sep-20 14:33N 59°20' E 018°05'0 0.0
2016-Sep-20 13:33N 59°20' E 018°05'0 0.0
2016-Sep-20 10:33N 59°20' E 018°05'0 0.0
2016-Sep-20 08:33N 59°20' E 018°05'5 5.2
2016-Sep-20 07:33N 59°21' E 018°14'  

Dump ship's entire track history